Time;durP1;ratioP1;P1;durP2;ratioP2;P2;SDS_P1;SDS_P2;PMS_P1;PMS_P2;Temp;Humidity;BMP_temperature;BMP_pressure;BME280_temperature;BME280_humidity;BME280_pressure;Samples;Min_cycle;Max_cycle;Signal;HPM_P1;HPM_P2
2022/09/06 00:00:15;;;;;;;3.90;3.50;;;20.60;99.90;;;;;;5015055;28;20775;-70
2022/09/06 00:02:42;;;;;;;4.40;4.00;;;20.70;99.90;;;;;;4975295;28;20193;-69
2022/09/06 00:05:09;;;;;;;5.10;3.90;;;20.60;99.90;;;;;;4986684;28;20813;-69
2022/09/06 00:07:35;;;;;;;6.30;4.20;;;20.60;99.90;;;;;;4995843;28;20414;-69
2022/09/06 00:10:01;;;;;;;3.97;3.57;;;20.50;99.90;;;;;;4995821;28;20411;-68
2022/09/06 00:12:27;;;;;;;4.50;3.30;;;20.50;99.90;;;;;;4995514;28;20541;-69
2022/09/06 00:14:53;;;;;;;4.57;4.17;;;20.50;99.90;;;;;;4995934;28;20412;-69
2022/09/06 00:17:18;;;;;;;4.47;4.07;;;20.60;99.90;;;;;;4995368;28;20173;-69
2022/09/06 00:19:44;;;;;;;5.90;4.77;;;20.50;99.90;;;;;;4995644;28;20165;-69
2022/09/06 00:22:09;;;;;;;4.80;4.40;;;20.40;99.90;;;;;;4995576;28;20184;-69
2022/09/06 00:24:36;;;;;;;4.53;3.97;;;20.30;99.90;;;;;;4995530;28;20619;-69
2022/09/06 00:27:02;;;;;;;5.00;4.23;;;20.40;99.90;;;;;;4995471;28;20164;-69
2022/09/06 00:29:28;;;;;;;4.93;3.90;;;20.40;99.90;;;;;;4995663;28;20404;-69
2022/09/06 00:31:53;;;;;;;4.73;4.23;;;20.30;99.90;;;;;;5008422;28;20438;-69
2022/09/06 00:34:19;;;;;;;4.27;3.87;;;20.30;99.90;;;;;;5015435;28;20191;-69
2022/09/06 00:36:44;;;;;;;4.60;4.20;;;20.20;99.90;;;;;;5009540;28;20187;-69
2022/09/06 00:39:10;;;;;;;4.87;3.87;;;20.30;99.90;;;;;;5006585;28;20176;-69
2022/09/06 00:41:36;;;;;;;4.23;3.77;;;20.30;99.90;;;;;;5015207;28;20195;-69
2022/09/06 00:44:01;;;;;;;4.73;4.33;;;20.20;99.90;;;;;;5014715;28;20252;-69
2022/09/06 00:46:30;;;;;;;4.30;3.83;;;20.20;99.90;;;;;;5014629;28;20664;-69
2022/09/06 00:49:02;;;;;;;4.37;3.97;;;20.10;99.90;;;;;;5014896;28;20652;-69
2022/09/06 00:51:29;;;;;;;6.13;4.40;;;20.20;99.90;;;;;;5014574;28;20431;-69
2022/09/06 00:53:55;;;;;;;4.30;3.90;;;20.20;99.90;;;;;;5014546;28;20450;-69
2022/09/06 00:56:22;;;;;;;3.90;3.60;;;20.20;99.90;;;;;;5014510;28;20407;-69
2022/09/06 00:58:49;;;;;;;4.80;4.30;;;20.20;99.90;;;;;;5014400;28;20414;-69
2022/09/06 01:01:14;;;;;;;5.00;3.80;;;20.20;99.90;;;;;;5014236;28;20427;-69
2022/09/06 01:03:41;;;;;;;4.43;3.90;;;20.10;99.90;;;;;;5014965;28;20410;-69
2022/09/06 01:06:24;;;;;;;4.17;3.77;;;20.10;99.90;;;;;;5014661;28;20176;-68
2022/09/06 01:09:04;;;;;;;4.60;4.20;;;20.10;99.90;;;;;;5014495;28;20466;-69
2022/09/06 01:11:48;;;;;;;7.10;4.07;;;20.10;99.90;;;;;;5014419;28;20454;-69
2022/09/06 01:14:26;;;;;;;5.70;5.07;;;20.00;99.90;;;;;;5014548;28;20391;-69
2022/09/06 01:17:11;;;;;;;6.57;3.83;;;20.00;99.90;;;;;;5014043;28;20474;-69
2022/09/06 01:20:13;;;;;;;5.47;4.00;;;19.90;99.90;;;;;;5014432;28;20852;-69
2022/09/06 01:22:39;;;;;;;5.00;4.10;;;19.90;99.90;;;;;;5014130;28;20419;-69
2022/09/06 01:25:43;;;;;;;4.70;4.30;;;20.00;99.90;;;;;;5014011;28;20744;-69
2022/09/06 01:28:36;;;;;;;4.47;3.97;;;20.00;99.90;;;;;;5012040;28;20183;-69
2022/09/06 01:31:17;;;;;;;4.50;4.10;;;20.00;99.90;;;;;;5013564;28;20461;-69
2022/09/06 01:34:06;;;;;;;6.80;3.80;;;19.90;99.90;;;;;;5014133;28;20850;-69
2022/09/06 01:36:47;;;;;;;6.20;4.57;;;19.90;99.90;;;;;;5014358;28;20430;-69
2022/09/06 01:39:32;;;;;;;5.87;4.33;;;19.80;99.90;;;;;;5014491;28;20470;-69
2022/09/06 01:42:03;;;;;;;4.73;4.20;;;19.80;99.90;;;;;;5014003;28;20931;-69
2022/09/06 01:44:29;;;;;;;6.63;3.90;;;19.70;99.90;;;;;;5013998;28;20411;-69
2022/09/06 01:47:10;;;;;;;4.20;3.80;;;19.70;99.90;;;;;;5013448;28;20399;-69
2022/09/06 01:49:47;;;;;;;4.40;4.00;;;19.70;99.90;;;;;;5013925;28;20378;-69
2022/09/06 01:52:19;;;;;;;4.57;4.10;;;19.80;99.90;;;;;;5012565;28;20826;-69
2022/09/06 01:55:25;;;;;;;4.20;3.80;;;19.90;99.90;;;;;;5013867;28;20387;-69
2022/09/06 01:58:02;;;;;;;5.10;4.00;;;19.90;99.90;;;;;;4990752;28;20546;-69
2022/09/06 02:00:28;;;;;;;4.47;4.07;;;19.90;99.90;;;;;;5013875;28;20415;-69
2022/09/06 02:03:12;;;;;;;4.37;3.80;;;19.80;99.90;;;;;;5012171;28;20426;-69
2022/09/06 02:05:50;;;;;;;4.37;4.00;;;19.80;99.90;;;;;;5007172;28;20789;-69
2022/09/06 02:08:30;;;;;;;4.63;3.60;;;19.90;99.90;;;;;;4975058;28;20748;-69
2022/09/06 02:11:02;;;;;;;4.50;4.10;;;19.90;99.90;;;;;;4974202;28;20441;-69
2022/09/06 02:13:49;;;;;;;4.53;4.13;;;19.80;99.90;;;;;;4974552;28;20484;-69
2022/09/06 02:16:19;;;;;;;6.57;4.20;;;19.90;99.90;;;;;;4974084;28;20433;-69
2022/09/06 02:18:51;;;;;;;7.20;4.50;;;19.80;99.90;;;;;;4974531;28;20480;-69
2022/09/06 02:21:21;;;;;;;5.33;4.83;;;19.80;99.90;;;;;;4974655;28;20428;-69
2022/09/06 02:23:48;;;;;;;4.73;4.43;;;19.60;99.90;;;;;;4974230;28;20404;-69
2022/09/06 02:26:21;;;;;;;6.87;5.00;;;19.60;99.90;;;;;;4976924;28;20413;-68
2022/09/06 02:28:47;;;;;;;4.67;4.23;;;19.90;99.90;;;;;;4978827;28;20388;-69
2022/09/06 02:31:23;;;;;;;7.93;4.83;;;20.10;99.90;;;;;;4988728;28;20427;-69
2022/09/06 02:33:50;;;;;;;4.53;4.20;;;20.30;99.90;;;;;;5017656;28;20442;-69
2022/09/06 02:36:16;;;;;;;4.60;4.20;;;20.20;99.90;;;;;;5017457;28;20395;-68
2022/09/06 02:38:44;;;;;;;5.40;4.90;;;20.30;99.90;;;;;;5017531;28;20915;-69
2022/09/06 02:41:11;;;;;;;4.43;4.10;;;20.20;99.90;;;;;;5017231;28;20505;-69
2022/09/06 02:43:37;;;;;;;9.23;5.07;;;20.30;99.90;;;;;;5017051;28;20773;-69
2022/09/06 02:46:03;;;;;;;6.40;4.17;;;20.40;99.90;;;;;;5016836;28;20394;-69
2022/09/06 02:48:28;;;;;;;4.90;4.40;;;20.50;99.90;;;;;;5017283;28;20438;-69
2022/09/06 02:50:54;;;;;;;8.50;5.10;;;20.50;99.90;;;;;;5016931;28;20274;-69
2022/09/06 02:53:19;;;;;;;5.90;4.70;;;20.60;99.90;;;;;;5016854;28;20192;-69
2022/09/06 02:55:47;;;;;;;5.80;5.20;;;20.60;99.90;;;;;;5017018;28;20172;-69
2022/09/06 02:58:14;;;;;;;6.93;4.77;;;20.40;99.90;;;;;;5017236;28;20562;-69
2022/09/06 03:00:40;;;;;;;8.30;5.87;;;20.40;99.90;;;;;;5015926;28;20768;-70
2022/09/06 03:03:06;;;;;;;16.20;7.30;;;20.40;99.90;;;;;;5016487;28;20502;-69
2022/09/06 03:05:32;;;;;;;9.03;5.23;;;20.40;99.90;;;;;;5016913;28;20441;-69
2022/09/06 03:07:58;;;;;;;9.10;6.77;;;19.70;99.90;;;;;;5016757;28;20510;-69
2022/09/06 03:10:25;;;;;;;12.10;7.20;;;19.60;99.90;;;;;;5016855;28;20506;-68
2022/09/06 03:12:51;;;;;;;12.43;6.90;;;19.70;99.90;;;;;;5046727;23;20250;-69
2022/09/06 03:15:17;;;;;;;7.23;6.40;;;19.70;99.90;;;;;;5035165;28;20839;-68
2022/09/06 03:17:43;;;;;;;8.13;7.10;;;19.80;99.90;;;;;;5034954;28;20394;-69
2022/09/06 03:20:10;;;;;;;10.30;7.23;;;20.00;99.90;;;;;;5035176;28;20425;-69
2022/09/06 03:22:38;;;;;;;7.30;6.60;;;19.80;99.90;;;;;;5034882;28;20424;-69
2022/09/06 03:25:04;;;;;;;7.30;6.70;;;19.70;99.90;;;;;;5035058;28;20421;-69
2022/09/06 03:27:30;;;;;;;8.37;7.57;;;19.60;99.90;;;;;;5034489;28;20839;-69
2022/09/06 03:29:55;;;;;;;9.90;7.70;;;19.50;99.90;;;;;;5029707;28;20433;-69
2022/09/06 03:32:21;;;;;;;7.77;6.23;;;19.40;99.90;;;;;;5020129;28;20204;-69
2022/09/06 03:34:47;;;;;;;8.23;7.43;;;19.50;99.90;;;;;;5013846;28;20176;-68
2022/09/06 03:37:12;;;;;;;8.50;5.73;;;19.40;99.90;;;;;;5014223;28;20254;-69
2022/09/06 03:39:38;;;;;;;7.23;6.53;;;19.60;99.90;;;;;;5015171;28;20172;-69
2022/09/06 03:42:03;;;;;;;7.30;6.60;;;19.60;99.90;;;;;;5023848;28;20281;-69
2022/09/06 03:44:29;;;;;;;9.10;6.93;;;19.60;99.90;;;;;;5034653;28;20317;-68
2022/09/06 03:46:55;;;;;;;7.60;6.30;;;19.60;99.90;;;;;;5034537;28;20182;-69
2022/09/06 03:49:20;;;;;;;11.20;7.87;;;19.50;99.90;;;;;;5034722;28;20172;-69
2022/09/06 03:51:46;;;;;;;8.10;7.30;;;19.50;99.90;;;;;;5034424;28;20562;-69
2022/09/06 03:54:12;;;;;;;6.97;6.27;;;19.50;99.90;;;;;;5034708;28;20294;-69
2022/09/06 03:56:37;;;;;;;9.37;7.03;;;19.40;99.90;;;;;;5034339;28;20210;-69
2022/09/06 03:59:03;;;;;;;7.80;7.20;;;19.30;99.90;;;;;;5032986;28;20262;-69
2022/09/06 04:01:28;;;;;;;6.83;5.37;;;19.30;99.90;;;;;;5031758;28;20223;-68
2022/09/06 04:03:54;;;;;;;7.57;6.97;;;19.30;99.90;;;;;;5034024;28;20240;-68
2022/09/06 04:06:19;;;;;;;6.97;6.30;;;19.30;99.90;;;;;;5032646;28;20621;-69
2022/09/06 04:08:45;;;;;;;6.97;6.47;;;19.20;99.90;;;;;;5034384;28;20287;-70
2022/09/06 04:11:11;;;;;;;8.10;7.50;;;19.20;99.90;;;;;;5033520;28;20667;-69
2022/09/06 04:13:36;;;;;;;9.77;8.73;;;19.20;99.90;;;;;;5034066;28;20231;-69
2022/09/06 04:16:03;;;;;;;7.83;7.10;;;19.30;99.90;;;;;;5034117;28;20248;-70
2022/09/06 04:18:29;;;;;;;7.60;6.90;;;19.40;99.90;;;;;;5034102;28;20624;-70
2022/09/06 04:20:55;;;;;;;7.40;6.80;;;19.40;99.90;;;;;;5033816;28;20453;-70
2022/09/06 04:23:22;;;;;;;6.73;6.10;;;19.50;99.90;;;;;;5034190;28;20261;-70
2022/09/06 04:25:50;;;;;;;6.57;5.97;;;19.40;99.90;;;;;;5033694;28;20442;-69
2022/09/06 04:28:17;;;;;;;8.37;7.10;;;19.20;99.90;;;;;;5033755;28;20402;-69
2022/09/06 04:30:43;;;;;;;6.73;6.07;;;19.20;99.90;;;;;;5033866;28;20440;-70
2022/09/06 04:33:09;;;;;;;7.13;6.53;;;19.20;99.90;;;;;;5033829;28;20532;-69
2022/09/06 04:35:35;;;;;;;7.70;6.93;;;19.30;99.90;;;;;;5033616;28;20406;-69
2022/09/06 04:38:02;;;;;;;6.03;5.53;;;19.30;99.90;;;;;;5034129;28;20233;-69
2022/09/06 04:40:28;;;;;;;6.70;6.20;;;19.40;99.90;;;;;;5034114;28;20402;-69
2022/09/06 04:42:53;;;;;;;5.60;5.20;;;19.40;99.90;;;;;;5033387;28;21027;-69
2022/09/06 04:45:19;;;;;;;8.60;6.33;;;19.50;99.90;;;;;;5033389;28;20175;-70
2022/09/06 04:47:44;;;;;;;7.80;5.80;;;19.50;99.90;;;;;;5033400;28;20163;-70
2022/09/06 04:50:10;;;;;;;7.83;6.70;;;19.60;99.90;;;;;;5033637;28;20213;-70
2022/09/06 04:52:35;;;;;;;6.33;5.73;;;19.60;99.90;;;;;;5033458;28;20209;-69
2022/09/06 04:55:01;;;;;;;7.10;6.40;;;19.60;99.90;;;;;;5033633;28;20724;-69
2022/09/06 04:57:27;;;;;;;7.53;6.83;;;19.60;99.90;;;;;;5033214;28;20538;-69
2022/09/06 04:59:52;;;;;;;7.40;6.80;;;19.50;99.90;;;;;;5033357;28;20254;-69
2022/09/06 05:02:18;;;;;;;8.07;7.40;;;19.40;99.90;;;;;;5031948;28;20290;-69
2022/09/06 05:04:43;;;;;;;6.87;6.23;;;19.40;99.90;;;;;;5033867;28;20179;-69
2022/09/06 05:07:09;;;;;;;7.23;6.40;;;19.40;99.90;;;;;;5033153;28;20172;-69
2022/09/06 05:09:35;;;;;;;7.63;6.93;;;19.50;99.90;;;;;;5033526;28;20184;-69
2022/09/06 05:12:01;;;;;;;8.30;5.83;;;19.60;99.90;;;;;;5033310;28;20203;-69
2022/09/06 05:14:27;;;;;;;8.20;7.40;;;19.60;99.90;;;;;;5033510;28;20461;-69
2022/09/06 05:16:53;;;;;;;7.13;6.53;;;19.60;99.90;;;;;;5033128;28;20242;-70
2022/09/06 05:19:20;;;;;;;8.37;7.50;;;19.60;99.90;;;;;;5033231;28;20422;-70
2022/09/06 05:21:45;;;;;;;8.03;7.27;;;19.60;99.90;;;;;;5033356;28;20414;-69
2022/09/06 05:24:11;;;;;;;7.00;6.30;;;19.60;99.90;;;;;;5033336;28;20965;-69
2022/09/06 05:26:37;;;;;;;6.23;5.73;;;19.60;99.90;;;;;;5033016;28;20229;-69
2022/09/06 05:29:02;;;;;;;6.20;5.60;;;19.70;99.90;;;;;;5031458;28;20179;-69
2022/09/06 05:31:31;;;;;;;7.70;7.00;;;19.80;99.90;;;;;;5032714;28;20261;-69
2022/09/06 05:33:57;;;;;;;7.93;6.20;;;19.80;99.90;;;;;;5033028;28;20191;-70
2022/09/06 05:36:24;;;;;;;8.20;7.50;;;19.80;99.90;;;;;;5032958;28;20411;-70
2022/09/06 05:38:51;;;;;;;8.23;7.43;;;19.80;99.90;;;;;;5032546;28;20402;-70
2022/09/06 05:41:17;;;;;;;8.93;8.10;;;19.80;99.90;;;;;;5032544;28;20557;-69
2022/09/06 05:43:43;;;;;;;7.53;6.83;;;19.80;99.90;;;;;;5032406;28;20402;-69
2022/09/06 05:46:09;;;;;;;7.60;6.90;;;19.80;99.90;;;;;;5032625;28;20463;-68
2022/09/06 05:48:35;;;;;;;10.30;7.30;;;19.80;99.90;;;;;;5032269;28;20774;-69
2022/09/06 05:51:11;;;;;;;7.63;6.90;;;19.90;99.90;;;;;;5032467;28;20405;-69
2022/09/06 05:53:42;;;;;;;8.17;7.40;;;19.80;99.90;;;;;;5032820;28;20257;-68
2022/09/06 05:56:09;;;;;;;7.83;7.07;;;19.70;99.90;;;;;;5032561;28;20394;-69
2022/09/06 05:58:35;;;;;;;7.60;6.90;;;19.60;99.90;;;;;;5032673;28;20401;-69
2022/09/06 06:01:24;;;;;;;7.57;6.80;;;19.70;99.90;;;;;;5032417;28;20402;-70
2022/09/06 06:03:57;;;;;;;7.83;7.20;;;19.90;99.90;;;;;;5032180;28;20175;-69
2022/09/06 06:06:25;;;;;;;7.83;6.70;;;20.00;99.90;;;;;;5030851;28;20410;-69
2022/09/06 06:08:51;;;;;;;7.90;7.20;;;20.00;99.90;;;;;;5032406;28;20416;-69
2022/09/06 06:11:17;;;;;;;7.17;6.47;;;20.10;99.90;;;;;;5031699;28;20867;-70
2022/09/06 06:13:43;;;;;;;7.03;6.43;;;20.10;99.90;;;;;;5032562;28;20191;-70
2022/09/06 06:16:14;;;;;;;7.27;6.60;;;20.20;99.90;;;;;;5032282;28;20409;-70
2022/09/06 06:18:40;;;;;;;7.20;6.50;;;20.30;99.90;;;;;;5031885;28;20391;-70
2022/09/06 06:21:17;;;;;;;7.37;6.60;;;20.50;99.90;;;;;;5030995;28;20953;-70
2022/09/06 06:23:44;;;;;;;6.07;5.57;;;20.50;99.90;;;;;;5024956;28;20167;-69
2022/09/06 06:26:11;;;;;;;6.67;6.10;;;20.50;99.90;;;;;;5013421;28;20410;-70
2022/09/06 06:28:38;;;;;;;6.87;6.17;;;20.50;99.90;;;;;;5012394;28;20394;-70
2022/09/06 06:31:05;;;;;;;7.83;7.07;;;20.70;99.90;;;;;;5012955;28;20967;-71
2022/09/06 06:33:31;;;;;;;7.90;7.20;;;20.70;99.90;;;;;;5031935;28;20950;-70
2022/09/06 06:36:02;;;;;;;6.63;6.03;;;20.80;99.90;;;;;;5030702;28;20520;-70
2022/09/06 06:38:32;;;;;;;6.90;6.30;;;20.90;99.90;;;;;;5032739;28;20190;-70
2022/09/06 06:40:59;;;;;;;9.53;6.57;;;21.00;99.90;;;;;;5032385;28;20466;-71
2022/09/06 06:43:24;;;;;;;7.37;6.77;;;21.00;99.90;;;;;;5031847;28;20903;-70
2022/09/06 06:45:50;;;;;;;8.53;7.63;;;20.90;99.90;;;;;;5032469;28;20465;-70
2022/09/06 06:48:16;;;;;;;7.23;6.63;;;21.10;99.90;;;;;;5031725;28;20178;-70
2022/09/06 06:50:41;;;;;;;10.10;7.50;;;21.10;99.90;;;;;;5032012;28;20178;-70
2022/09/06 06:53:07;;;;;;;7.87;7.17;;;21.30;99.90;;;;;;5030404;28;20195;-70
2022/09/06 06:55:33;;;;;;;7.20;6.60;;;21.40;99.90;;;;;;5032083;28;20163;-69
2022/09/06 06:57:59;;;;;;;6.57;5.97;;;21.50;99.90;;;;;;5031752;28;20172;-70
2022/09/06 07:00:24;;;;;;;6.60;6.00;;;21.70;99.90;;;;;;5031828;28;20640;-68
2022/09/06 07:02:51;;;;;;;8.47;7.17;;;21.80;99.90;;;;;;5030564;28;20450;-68
2022/09/06 07:05:17;;;;;;;6.17;5.63;;;21.90;99.90;;;;;;5031657;28;20164;-68
2022/09/06 07:07:43;;;;;;;6.70;6.10;;;22.10;99.90;;;;;;5031623;28;20405;-68
2022/09/06 07:10:09;;;;;;;6.53;5.93;;;22.20;99.90;;;;;;5031857;28;20175;-69
2022/09/06 07:12:35;;;;;;;10.50;6.70;;;22.50;99.90;;;;;;5035769;28;20207;-69
2022/09/06 07:15:01;;;;;;;6.77;6.20;;;22.60;99.90;;;;;;5035187;28;20394;-68
2022/09/06 07:17:27;;;;;;;9.23;7.27;;;22.70;99.90;;;;;;5034954;28;20410;-69
2022/09/06 07:19:53;;;;;;;6.33;5.83;;;22.70;99.90;;;;;;5035033;28;20414;-69
2022/09/06 07:22:18;;;;;;;7.50;6.80;;;22.70;99.90;;;;;;5035009;28;20195;-69
2022/09/06 07:24:44;;;;;;;6.20;5.70;;;22.80;99.90;;;;;;5035237;28;20174;-69
2022/09/06 07:27:09;;;;;;;7.63;6.27;;;22.90;99.90;;;;;;5034983;28;20629;-69
2022/09/06 07:29:35;;;;;;;7.10;5.60;;;23.00;99.90;;;;;;5035087;28;20246;-69
2022/09/06 07:32:01;;;;;;;7.70;6.47;;;23.00;99.90;;;;;;5034489;28;20207;-69
2022/09/06 07:34:26;;;;;;;6.33;5.70;;;22.90;99.90;;;;;;5034818;28;20200;-69
2022/09/06 07:36:53;;;;;;;6.47;4.63;;;22.70;99.90;;;;;;5034892;28;20659;-69
2022/09/06 07:39:19;;;;;;;6.77;5.40;;;22.70;99.90;;;;;;5034673;28;20258;-69
2022/09/06 07:41:44;;;;;;;4.80;4.30;;;22.60;99.90;;;;;;5034589;28;20837;-68
2022/09/06 07:44:10;;;;;;;6.00;4.70;;;22.60;99.90;;;;;;5034833;28;20556;-70
2022/09/06 07:46:36;;;;;;;4.43;4.13;;;22.60;99.90;;;;;;5033169;28;20499;-69
2022/09/06 07:49:04;;;;;;;5.30;4.80;;;22.70;99.90;;;;;;5034265;28;20180;-69
2022/09/06 07:51:29;;;;;;;7.00;4.73;;;22.80;99.90;;;;;;5034561;28;20426;-68
2022/09/06 07:53:55;;;;;;;6.13;4.83;;;23.00;99.90;;;;;;5034832;28;20966;-68
2022/09/06 07:56:22;;;;;;;6.10;5.50;;;23.00;99.90;;;;;;5034867;28;20168;-69
2022/09/06 07:58:48;;;;;;;7.70;5.13;;;23.00;99.90;;;;;;5034589;28;20258;-69
2022/09/06 08:01:30;;;;;;;5.70;5.20;;;23.10;99.90;;;;;;5033995;28;20422;-69
2022/09/06 08:04:00;;;;;;;6.70;4.77;;;23.20;99.90;;;;;;5014583;28;20387;-69
2022/09/06 08:06:28;;;;;;;4.10;3.60;;;23.30;99.90;;;;;;5014396;28;20399;-68
2022/09/06 08:08:54;;;;;;;4.50;4.10;;;23.30;99.90;;;;;;5014637;28;20395;-68
2022/09/06 08:11:20;;;;;;;4.30;3.77;;;23.40;99.90;;;;;;5014344;28;20591;-68
2022/09/06 08:13:50;;;;;;;4.63;4.23;;;23.70;99.90;;;;;;5014334;28;20431;-68
2022/09/06 08:16:17;;;;;;;5.00;4.20;;;23.60;99.90;;;;;;5014514;28;20399;-68
2022/09/06 08:18:42;;;;;;;5.77;4.37;;;23.80;99.90;;;;;;5014032;28;20406;-69
2022/09/06 08:21:12;;;;;;;4.70;4.30;;;24.00;99.90;;;;;;5014190;28;20395;-69
2022/09/06 08:23:42;;;;;;;4.83;4.40;;;24.10;99.90;;;;;;5014053;28;20549;-68
2022/09/06 08:26:08;;;;;;;5.00;3.93;;;24.20;99.90;;;;;;5014492;28;20773;-69
2022/09/06 08:28:34;;;;;;;4.80;4.33;;;24.10;99.90;;;;;;5014421;28;20414;-69
2022/09/06 08:31:14;;;;;;;5.93;4.27;;;24.00;99.90;;;;;;5014006;28;20876;-69
2022/09/06 08:33:41;;;;;;;4.07;3.67;;;23.80;99.90;;;;;;5033504;28;20241;-69
2022/09/06 08:36:07;;;;;;;5.20;4.40;;;23.80;99.90;;;;;;5034050;28;20398;-70
2022/09/06 08:38:33;;;;;;;5.07;4.10;;;23.90;99.90;;;;;;5034352;28;20497;-70
2022/09/06 08:41:26;;;;;;;4.40;4.10;;;23.80;99.90;;;;;;5034320;28;20883;-69
2022/09/06 08:43:56;;;;;;;4.87;4.37;;;23.70;99.90;;;;;;5034211;28;20398;-69
2022/09/06 08:46:37;;;;;;;5.00;3.47;;;23.80;99.90;;;;;;5034841;28;20398;-70
2022/09/06 08:49:04;;;;;;;9.07;5.50;;;24.00;99.90;;;;;;5033773;28;20394;-70
2022/09/06 08:51:45;;;;;;;5.53;4.17;;;23.90;99.90;;;;;;5033766;28;20452;-70
2022/09/06 08:54:37;;;;;;;4.90;4.23;;;24.10;99.90;;;;;;5032640;28;20532;-70
2022/09/06 08:57:22;;;;;;;8.60;4.60;;;24.30;99.90;;;;;;5032630;28;20409;-70
2022/09/06 08:59:52;;;;;;;6.27;4.50;;;24.40;99.90;;;;;;5033923;28;20753;-70
2022/09/06 09:02:20;;;;;;;9.60;4.23;;;24.50;99.90;;;;;;5033903;28;20466;-69
2022/09/06 09:04:56;;;;;;;5.43;4.50;;;24.60;99.90;;;;;;5034135;28;20768;-70
2022/09/06 09:07:48;;;;;;;6.23;4.37;;;24.70;99.90;;;;;;5033535;28;20402;-69
2022/09/06 09:10:22;;;;;;;4.73;4.17;;;24.90;99.90;;;;;;5033811;28;20557;-69
2022/09/06 09:12:48;;;;;;;4.10;3.70;;;25.30;99.90;;;;;;5056719;23;20580;-69
2022/09/06 09:15:17;;;;;;;6.67;4.13;;;25.60;99.90;;;;;;5020848;28;20474;-69
2022/09/06 09:17:44;;;;;;;5.60;3.50;;;25.90;99.90;;;;;;5006970;28;20422;-69
2022/09/06 09:20:10;;;;;;;6.20;4.00;;;26.30;99.90;;;;;;5014516;28;20762;-69
2022/09/06 09:22:36;;;;;;;11.00;3.93;;;26.40;99.90;;;;;;5014337;28;20424;-69
2022/09/06 09:25:04;;;;;;;4.87;4.00;;;26.70;99.90;;;;;;5012784;28;20176;-69
2022/09/06 09:27:31;;;;;;;9.17;4.10;;;27.10;99.90;;;;;;5012525;28;20825;-69
2022/09/06 09:30:00;;;;;;;6.13;4.07;;;27.40;99.90;;;;;;5013965;28;20461;-69
2022/09/06 09:32:30;;;;;;;6.60;3.83;;;27.70;99.90;;;;;;5014057;28;20601;-69
2022/09/06 09:35:20;;;;;;;3.83;3.33;;;27.50;99.90;;;;;;5013248;28;20468;-69
2022/09/06 09:37:46;;;;;;;3.93;3.37;;;27.70;99.90;;;;;;5029025;28;20759;-69
2022/09/06 09:40:24;;;;;;;8.73;4.23;;;27.80;99.90;;;;;;5013732;28;20402;-69
2022/09/06 09:42:51;;;;;;;9.37;4.30;;;27.40;99.90;;;;;;5013404;28;21009;-69
2022/09/06 09:45:19;;;;;;;7.03;3.80;;;27.30;99.90;;;;;;5003147;28;20446;-69
2022/09/06 09:47:45;;;;;;;7.00;3.60;;;27.40;99.90;;;;;;5013994;28;20469;-67
2022/09/06 09:50:31;;;;;;;9.70;3.77;;;27.60;99.90;;;;;;5013937;28;20411;-68
2022/09/06 09:53:09;;;;;;;6.30;3.23;;;27.90;99.90;;;;;;5012145;28;20232;-67
2022/09/06 09:55:35;;;;;;;4.33;3.60;;;27.80;99.90;;;;;;5014211;28;20391;-68
2022/09/06 09:58:00;;;;;;;5.53;3.80;;;27.70;99.90;;;;;;5013413;28;20402;-68
2022/09/06 10:00:40;;;;;;;6.33;4.03;;;27.80;99.90;;;;;;5013471;28;20453;-68
2022/09/06 10:03:25;;;;;;;4.23;3.83;;;28.00;99.90;;;;;;5012870;28;20699;-68
2022/09/06 10:05:56;;;;;;;4.73;3.77;;;28.30;99.90;;;;;;5013729;28;20395;-69
2022/09/06 10:08:24;;;;;;;7.27;4.23;;;28.40;99.90;;;;;;5013479;28;20414;-70
2022/09/06 10:10:50;;;;;;;6.03;3.67;;;28.50;99.90;;;;;;5012816;28;20406;-68
2022/09/06 10:13:19;;;;;;;5.30;3.47;;;28.50;99.90;;;;;;5012919;28;20876;-68
2022/09/06 10:15:45;;;;;;;8.43;3.80;;;28.60;99.90;;;;;;5013336;28;20403;-68
2022/09/06 10:18:28;;;;;;;13.67;4.27;;;28.90;99.90;;;;;;5013405;28;20395;-68
2022/09/06 10:21:01;;;;;;;8.60;4.37;;;29.10;99.90;;;;;;5013700;28;20180;-68
2022/09/06 10:23:57;;;;;;;7.30;3.53;;;29.20;99.90;;;;;;5013631;28;20462;-69
2022/09/06 10:26:48;;;;;;;5.13;3.47;;;29.40;99.90;;;;;;5013653;28;20383;-69
2022/09/06 10:29:34;;;;;;;5.47;3.00;;;29.80;99.10;;;;;;5013127;28;20399;-69
2022/09/06 10:32:15;;;;;;;3.73;2.40;;;30.20;96.60;;;;;;5014162;28;20431;-70
2022/09/06 10:34:59;;;;;;;6.93;2.20;;;29.90;95.70;;;;;;5013200;28;20395;-68
2022/09/06 10:38:01;;;;;;;2.67;2.47;;;30.10;93.70;;;;;;5013600;28;20379;-67
2022/09/06 10:40:51;;;;;;;3.30;2.67;;;30.00;95.30;;;;;;5013692;28;20390;-68
2022/09/06 10:43:19;;;;;;;4.87;3.20;;;30.40;95.70;;;;;;5012910;28;20501;-68
2022/09/06 10:45:45;;;;;;;8.63;2.97;;;30.40;96.50;;;;;;5013140;28;20946;-69
2022/09/06 10:48:30;;;;;;;4.27;2.57;;;30.40;94.90;;;;;;5017247;28;20407;-67
2022/09/06 10:51:05;;;;;;;4.07;2.97;;;30.50;96.10;;;;;;5017426;28;20498;-68
2022/09/06 10:53:43;;;;;;;5.67;3.00;;;30.30;95.60;;;;;;5016611;28;20450;-68
2022/09/06 10:56:40;;;;;;;5.63;3.33;;;30.20;95.60;;;;;;5016810;28;20383;-68
2022/09/06 10:59:23;;;;;;;5.03;3.00;;;30.60;95.60;;;;;;5016506;28;20380;-68
2022/09/06 11:02:15;;;;;;;6.10;3.20;;;30.70;95.20;;;;;;5017024;28;20398;-68
2022/09/06 11:04:43;;;;;;;5.40;3.30;;;30.80;95.60;;;;;;5016597;28;20865;-68
2022/09/06 11:07:35;;;;;;;4.77;3.60;;;30.50;95.20;;;;;;5016741;28;20399;-68
2022/09/06 11:10:09;;;;;;;3.77;3.07;;;30.50;95.20;;;;;;5016641;28;20746;-68
2022/09/06 11:12:56;;;;;;;4.27;3.17;;;30.50;95.50;;;;;;5016387;28;20473;-71
2022/09/06 11:15:24;;;;;;;7.53;3.50;;;31.00;95.50;;;;;;5016761;28;20387;-69
2022/09/06 11:18:13;;;;;;;5.53;3.20;;;31.10;94.70;;;;;;5016111;28;20402;-69
2022/09/06 11:20:45;;;;;;;7.67;3.60;;;31.00;94.70;;;;;;5016654;28;20396;-69
2022/09/06 11:23:53;;;;;;;7.50;4.17;;;31.30;95.80;;;;;;5016160;28;20418;-69
2022/09/06 11:26:43;;;;;;;5.17;3.67;;;31.30;95.80;;;;;;5013401;28;20423;-69
2022/09/06 11:29:25;;;;;;;5.53;4.23;;;32.30;95.30;;;;;;5016463;28;20393;-69
2022/09/06 11:31:55;;;;;;;7.73;4.37;;;33.00;93.40;;;;;;5016738;28;20426;-69
2022/09/06 11:34:29;;;;;;;6.93;3.83;;;33.50;93.90;;;;;;5016055;28;20446;-69
2022/09/06 11:37:03;;;;;;;6.10;3.63;;;33.90;91.40;;;;;;5016057;28;20380;-69
2022/09/06 11:39:37;;;;;;;7.33;3.83;;;34.00;91.90;;;;;;5016181;28;20447;-68
2022/09/06 11:42:27;;;;;;;8.10;4.03;;;34.40;91.60;;;;;;5015878;28;20795;-69
2022/09/06 11:45:20;;;;;;;6.60;3.87;;;34.90;90.00;;;;;;5005212;28;20421;-69
2022/09/06 11:47:50;;;;;;;7.13;3.90;;;35.80;90.00;;;;;;5015730;28;20383;-69
2022/09/06 11:50:27;;;;;;;10.50;4.60;;;36.50;83.60;;;;;;5016054;28;20437;-69
2022/09/06 11:53:15;;;;;;;7.50;3.60;;;37.00;80.00;;;;;;5015956;28;20446;-69
2022/09/06 11:56:07;;;;;;;8.30;4.33;;;36.80;79.90;;;;;;5016153;28;20478;-69
2022/09/06 11:58:38;;;;;;;8.53;3.57;;;36.70;80.00;;;;;;5015322;28;20841;-69
2022/09/06 12:01:32;;;;;;;6.40;3.90;;;36.90;77.20;;;;;;5015852;28;20411;-69
2022/09/06 12:03:57;;;;;;;5.73;3.27;;;37.20;75.30;;;;;;5015548;28;20417;-69
2022/09/06 12:06:34;;;;;;;6.73;3.10;;;36.40;76.20;;;;;;5015105;28;20779;-68
2022/09/06 12:09:00;;;;;;;5.77;3.80;;;36.40;76.50;;;;;;5015201;28;20713;-68
2022/09/06 12:11:42;;;;;;;5.47;3.83;;;37.20;74.90;;;;;;5015620;28;20500;-68
2022/09/06 12:14:39;;;;;;;6.27;3.50;;;36.80;75.30;;;;;;5016677;28;20928;-68
2022/09/06 12:17:05;;;;;;;5.93;3.40;;;37.60;71.60;;;;;;5015065;28;20823;-69
2022/09/06 12:19:42;;;;;;;8.60;4.47;;;37.90;71.20;;;;;;5014989;28;20409;-68
2022/09/06 12:22:29;;;;;;;5.70;3.33;;;38.20;68.60;;;;;;5015405;28;20440;-69
2022/09/06 12:24:59;;;;;;;6.43;3.43;;;37.40;69.60;;;;;;5015680;28;20434;-69
2022/09/06 12:27:30;;;;;;;4.27;3.27;;;36.90;71.10;;;;;;5015782;28;20399;-70
2022/09/06 12:30:03;;;;;;;6.40;3.90;;;36.80;73.50;;;;;;5015020;28;20884;-70
2022/09/06 12:32:48;;;;;;;6.97;3.40;;;36.40;72.00;;;;;;5014890;28;20541;-70
2022/09/06 12:35:26;;;;;;;6.60;3.17;;;36.60;72.80;;;;;;5015176;28;20403;-70
2022/09/06 12:38:04;;;;;;;9.40;3.53;;;38.30;67.60;;;;;;5004188;28;20463;-70
2022/09/06 12:40:32;;;;;;;6.10;3.43;;;38.50;65.60;;;;;;4995439;28;20376;-69
2022/09/06 12:42:58;;;;;;;7.50;3.70;;;37.90;64.90;;;;;;4995509;28;20423;-69
2022/09/06 12:45:24;;;;;;;11.93;3.77;;;34.30;71.90;;;;;;5010429;28;20407;-69
2022/09/06 12:48:09;;;;;;;5.57;3.93;;;32.70;78.70;;;;;;4995117;28;20420;-69
2022/09/06 12:50:36;;;;;;;7.43;4.00;;;31.50;86.50;;;;;;4995574;28;20397;-69
2022/09/06 12:53:15;;;;;;;6.43;4.00;;;31.50;91.00;;;;;;4995316;28;20456;-69
2022/09/06 12:55:40;;;;;;;6.47;3.50;;;31.00;93.20;;;;;;4993877;28;20404;-69
2022/09/06 12:58:09;;;;;;;5.40;4.17;;;31.50;92.30;;;;;;4995553;28;20399;-70
2022/09/06 13:00:50;;;;;;;6.10;3.40;;;30.90;93.00;;;;;;4995297;28;20165;-70
2022/09/06 13:03:21;;;;;;;4.77;3.60;;;30.70;95.60;;;;;;5005339;28;20450;-69
2022/09/06 13:05:47;;;;;;;4.57;3.83;;;30.10;96.10;;;;;;5014377;28;20557;-70